createdAt,value
2019-01-23T00:00:13.994Z,-2.15
2019-01-23T00:01:13.983Z,-2.18
2019-01-23T00:02:14.003Z,-2.16
2019-01-23T00:03:13.980Z,-2.18
2019-01-23T00:04:13.951Z,-2.12
2019-01-23T00:05:13.941Z,-2.15
2019-01-23T00:06:13.930Z,-2.21
2019-01-23T00:07:13.919Z,-2.19
2019-01-23T00:08:13.940Z,-2.24
2019-01-23T00:09:13.903Z,-2.22
2019-01-23T00:10:13.893Z,-2.18
2019-01-23T00:11:13.875Z,-2.26
2019-01-23T00:12:13.866Z,-2.19
2019-01-23T00:13:13.855Z,-2.22
2019-01-23T00:14:13.877Z,-2.26
2019-01-23T00:15:13.846Z,-2.24
2019-01-23T00:16:13.826Z,-2.30
2019-01-23T00:17:13.812Z,-2.26
2019-01-23T00:18:13.801Z,-2.24
2019-01-23T00:19:13.797Z,-2.40
2019-01-23T00:20:13.814Z,-2.45
2019-01-23T00:21:13.782Z,-2.38
2019-01-23T00:22:13.764Z,-2.38
2019-01-23T00:23:13.751Z,-2.35
2019-01-23T00:24:13.751Z,-2.29
2019-01-23T00:25:13.732Z,-2.34
2019-01-23T00:26:13.767Z,-2.26
2019-01-23T00:27:13.725Z,-2.30
2019-01-23T00:28:13.695Z,-2.30
2019-01-23T00:29:13.686Z,-2.24
2019-01-23T00:30:13.693Z,-2.33
2019-01-23T00:31:13.665Z,-2.27
2019-01-23T00:32:13.700Z,-2.29
2019-01-23T00:33:13.657Z,-2.26
2019-01-23T00:34:13.635Z,-2.27
2019-01-23T00:35:13.622Z,-2.29
2019-01-23T00:36:13.621Z,-2.26
2019-01-23T00:37:13.600Z,-2.37
2019-01-23T00:38:13.618Z,-2.34
2019-01-23T00:39:13.588Z,-2.24
2019-01-23T00:40:13.573Z,-2.26
2019-01-23T00:41:13.564Z,-2.27
2019-01-23T00:42:13.550Z,-2.30
2019-01-23T00:43:13.540Z,-2.38
2019-01-23T00:44:13.610Z,-2.38
2019-01-23T00:45:13.529Z,-2.33
2019-01-23T00:46:13.506Z,-2.41
2019-01-23T00:47:13.495Z,-2.34
2019-01-23T00:48:13.486Z,-2.33
2019-01-23T00:49:13.475Z,-2.33
2019-01-23T00:50:13.508Z,-2.38
2019-01-23T00:51:13.464Z,-2.34
2019-01-23T00:52:13.442Z,-2.43
2019-01-23T00:53:13.431Z,-2.38
2019-01-23T00:54:13.421Z,-2.33
2019-01-23T00:55:13.409Z,-2.34
2019-01-23T00:56:13.447Z,-2.40
2019-01-23T00:57:13.393Z,-2.37
2019-01-23T00:58:13.382Z,-2.30
2019-01-23T00:59:13.373Z,-2.29
2019-01-23T01:00:13.357Z,-2.27
2019-01-23T01:01:13.351Z,-2.29
2019-01-23T01:02:13.372Z,-2.26
2019-01-23T01:03:13.335Z,-2.26
2019-01-23T01:04:13.317Z,-2.37
2019-01-23T01:05:13.306Z,-2.35
2019-01-23T01:06:13.293Z,-2.30
2019-01-23T01:07:13.283Z,-2.30
2019-01-23T01:08:13.326Z,-2.33
2019-01-23T01:09:13.271Z,-2.22
2019-01-23T01:10:13.253Z,-2.29
2019-01-23T01:11:13.243Z,-2.24
2019-01-23T01:12:13.230Z,-2.22
2019-01-23T01:13:13.219Z,-2.26
2019-01-23T01:14:13.241Z,-2.29
2019-01-23T01:15:13.694Z,-2.27
2019-01-23T01:16:13.188Z,-2.29
2019-01-23T01:17:13.181Z,-2.29
2019-01-23T01:18:13.167Z,-2.29
2019-01-23T01:19:13.158Z,-2.26
2019-01-23T01:20:13.195Z,-2.26
2019-01-23T01:21:13.151Z,-2.30
2019-01-23T01:22:13.126Z,-2.26
2019-01-23T01:23:13.114Z,-2.24
2019-01-23T01:24:13.106Z,-2.29
2019-01-23T01:25:13.092Z,-2.22
2019-01-23T01:26:13.130Z,-2.22
2019-01-23T01:27:13.095Z,-2.24
2019-01-23T01:28:13.060Z,-2.18
2019-01-23T01:29:13.051Z,-2.18
2019-01-23T01:30:13.046Z,-2.22
2019-01-23T01:31:13.030Z,-2.15
2019-01-23T01:32:13.065Z,-2.18
2019-01-23T01:33:13.043Z,-2.16
2019-01-23T01:34:12.997Z,-2.18
2019-01-23T01:35:12.987Z,-2.16
2019-01-23T01:36:12.978Z,-2.18
2019-01-23T01:37:12.967Z,-2.26
2019-01-23T01:38:13.019Z,-2.14
2019-01-23T01:39:12.965Z,-2.19
2019-01-23T01:40:12.934Z,-2.19
2019-01-23T01:41:12.925Z,-2.19
2019-01-23T01:42:12.914Z,-2.19
2019-01-23T01:43:12.901Z,-2.16
2019-01-23T01:44:12.921Z,-2.18
2019-01-23T01:45:12.889Z,-2.14
2019-01-23T01:46:12.869Z,-2.14
2019-01-23T01:47:12.863Z,-2.18
2019-01-23T01:48:12.850Z,-2.14
2019-01-23T01:49:12.838Z,-2.16
2019-01-23T01:50:12.885Z,-2.18
2019-01-23T01:51:12.834Z,-2.21
2019-01-23T01:52:12.805Z,-2.16
2019-01-23T01:53:12.797Z,-2.19
2019-01-23T01:54:12.791Z,-2.29
2019-01-23T01:55:12.774Z,-2.14
2019-01-23T01:56:12.796Z,-2.18
2019-01-23T01:57:12.764Z,-2.21
2019-01-23T01:58:12.742Z,-2.15
2019-01-23T01:59:12.732Z,-2.18
2019-01-23T02:00:12.722Z,-2.18
2019-01-23T02:01:12.712Z,-2.15
2019-01-23T02:02:12.747Z,-2.16
2019-01-23T02:03:15.432Z,-2.18
2019-01-23T02:04:12.679Z,-2.19
2019-01-23T02:05:12.668Z,-2.11
2019-01-23T02:06:12.658Z,-2.16
2019-01-23T02:07:12.646Z,-2.22
2019-01-23T02:08:12.702Z,-2.18
2019-01-23T02:09:12.646Z,-2.16
2019-01-23T02:10:12.623Z,-2.09
2019-01-23T02:11:12.607Z,-2.12
2019-01-23T02:12:12.603Z,-2.16
2019-01-23T02:13:12.585Z,-2.14
2019-01-23T02:14:12.630Z,-2.15
2019-01-23T02:15:12.578Z,-2.09
2019-01-23T02:16:12.552Z,-2.12
2019-01-23T02:17:12.544Z,-2.14
2019-01-23T02:18:12.532Z,-2.18
2019-01-23T02:19:12.520Z,-2.18
2019-01-23T02:20:12.559Z,-2.16
2019-01-23T02:21:12.515Z,-2.11
2019-01-23T02:22:12.487Z,-2.16
2019-01-23T02:23:12.483Z,-2.12
2019-01-23T02:24:12.467Z,-2.18
2019-01-23T02:25:12.456Z,-2.08
2019-01-23T02:26:12.510Z,-2.14
2019-01-23T02:27:12.451Z,-2.19
2019-01-23T02:28:12.425Z,-2.16
2019-01-23T02:29:12.413Z,-2.09
2019-01-23T02:30:12.406Z,-2.18
2019-01-23T02:31:12.396Z,-2.06
2019-01-23T02:32:12.415Z,-2.11
2019-01-23T02:33:12.391Z,-2.09
2019-01-23T02:34:12.363Z,-2.14
2019-01-23T02:35:12.351Z,-2.14
2019-01-23T02:36:12.340Z,-2.12
2019-01-23T02:37:12.333Z,-2.12
2019-01-23T02:38:12.368Z,-2.16
2019-01-23T02:39:12.329Z,-2.12
2019-01-23T02:40:12.297Z,-2.08
2019-01-23T02:41:12.286Z,-2.16
2019-01-23T02:42:12.277Z,-2.12
2019-01-23T02:43:12.268Z,-2.11
2019-01-23T02:44:12.457Z,-2.11
2019-01-23T02:45:12.265Z,-2.14
2019-01-23T02:46:12.232Z,-2.12
2019-01-23T02:47:12.227Z,-2.15
2019-01-23T02:48:12.215Z,-2.14
2019-01-23T02:49:12.204Z,-2.12
2019-01-23T02:50:12.238Z,-2.14
2019-01-23T02:51:12.201Z,-2.16
2019-01-23T02:52:12.169Z,-2.15
2019-01-23T02:53:12.160Z,-2.14
2019-01-23T02:54:12.149Z,-2.08
2019-01-23T02:55:12.139Z,-2.03
2019-01-23T02:56:12.174Z,-2.15
2019-01-23T02:57:12.115Z,-2.14
2019-01-23T02:58:12.124Z,-2.14
2019-01-23T02:59:17.333Z,-1.98
2019-01-23T03:00:13.086Z,-2.11
2019-01-23T03:01:12.077Z,-2.00
2019-01-23T03:02:12.113Z,-2.15
2019-01-23T03:03:12.053Z,-2.03
2019-01-23T03:04:12.064Z,-2.04
2019-01-23T03:05:12.032Z,-1.97
2019-01-23T03:06:12.023Z,-2.00
2019-01-23T03:07:12.012Z,-1.96
2019-01-23T03:08:12.058Z,-2.08
2019-01-23T03:09:11.989Z,-2.11
2019-01-23T03:10:12.006Z,-2.01
2019-01-23T03:11:11.969Z,-2.08
2019-01-23T03:12:11.956Z,-1.97
2019-01-23T03:13:11.947Z,-1.90
2019-01-23T03:14:11.970Z,-1.91
2019-01-23T03:15:11.925Z,-1.91
2019-01-23T03:16:11.928Z,-1.98
2019-01-23T03:17:11.904Z,-1.93
2019-01-23T03:18:11.894Z,-1.94
2019-01-23T03:19:11.887Z,-1.86
2019-01-23T03:20:11.908Z,-1.94
2019-01-23T03:21:11.868Z,-1.93
2019-01-23T03:22:11.872Z,-1.88
2019-01-23T03:23:11.842Z,-1.97
2019-01-23T03:24:11.840Z,-1.91
2019-01-23T03:25:11.820Z,-1.90
2019-01-23T03:26:11.843Z,-1.91
2019-01-23T03:27:11.800Z,-1.90
2019-01-23T03:28:11.806Z,-1.88
2019-01-23T03:29:11.778Z,-1.91
2019-01-23T03:30:11.847Z,-1.79
2019-01-23T03:31:11.757Z,-1.91
2019-01-23T03:32:11.794Z,-1.78
2019-01-23T03:33:11.735Z,-1.86
2019-01-23T03:34:11.731Z,-1.80
2019-01-23T03:35:11.721Z,-1.80
2019-01-23T03:36:11.705Z,-1.85
2019-01-23T03:37:11.692Z,-1.80
2019-01-23T03:38:11.730Z,-1.82
2019-01-23T03:39:11.677Z,-1.83
2019-01-23T03:40:11.668Z,-1.79
2019-01-23T03:41:11.652Z,-1.78
2019-01-23T03:42:11.642Z,-1.79
2019-01-23T03:43:11.630Z,-1.80
2019-01-23T03:44:11.671Z,-1.76
2019-01-23T03:45:11.608Z,-1.78
2019-01-23T03:46:11.615Z,-1.76
2019-01-23T03:47:11.591Z,-1.80
2019-01-23T03:48:11.575Z,-1.79
2019-01-23T03:49:11.564Z,-1.80
2019-01-23T03:50:11.585Z,-1.82
2019-01-23T03:51:11.548Z,-1.73
2019-01-23T03:52:11.547Z,-1.79
2019-01-23T03:53:11.522Z,-1.72
2019-01-23T03:54:11.511Z,-1.76
2019-01-23T03:55:11.506Z,-1.69
2019-01-23T03:56:11.543Z,-1.69
2019-01-23T03:57:11.486Z,-1.69
2019-01-23T03:58:11.491Z,-1.69
2019-01-23T03:59:11.457Z,-1.76
2019-01-23T04:00:11.455Z,-1.75
2019-01-23T04:01:11.439Z,-1.64
2019-01-23T04:02:11.461Z,-1.61
2019-01-23T04:03:11.417Z,-1.62
2019-01-23T04:04:11.432Z,-1.58
2019-01-23T04:05:11.394Z,-1.52
2019-01-23T04:06:11.384Z,-1.52
2019-01-23T04:07:11.373Z,-1.51
2019-01-23T04:08:11.426Z,-1.44
2019-01-23T04:09:11.351Z,-1.52
2019-01-23T04:10:11.360Z,-1.49
2019-01-23T04:11:11.331Z,-1.55
2019-01-23T04:12:11.309Z,-1.51
2019-01-23T04:13:11.303Z,-1.52
2019-01-23T04:14:11.350Z,-1.55
2019-01-23T04:15:11.280Z,-1.52
2019-01-23T04:16:11.288Z,-1.46
2019-01-23T04:17:11.257Z,-1.43
2019-01-23T04:18:11.247Z,-1.47
2019-01-23T04:19:11.235Z,-1.43
2019-01-23T04:20:11.276Z,-1.54
2019-01-23T04:21:11.214Z,-1.47
2019-01-23T04:22:11.223Z,-1.52
2019-01-23T04:23:11.194Z,-1.43
2019-01-23T04:24:11.186Z,-1.55
2019-01-23T04:25:11.176Z,-1.54
2019-01-23T04:26:11.365Z,-1.51
2019-01-23T04:27:11.160Z,-1.54
2019-01-23T04:28:11.160Z,-1.40
2019-01-23T04:29:11.129Z,-1.55
2019-01-23T04:30:11.120Z,-1.41
2019-01-23T04:31:11.114Z,-1.49
2019-01-23T04:32:11.151Z,-1.49
2019-01-23T04:33:11.091Z,-1.43
2019-01-23T04:34:11.091Z,-1.51
2019-01-23T04:35:11.068Z,-1.47
2019-01-23T04:36:11.055Z,-1.49
2019-01-23T04:37:11.046Z,-1.51
2019-01-23T04:38:11.088Z,-1.47
2019-01-23T04:39:11.024Z,-1.51
2019-01-23T04:40:11.025Z,-1.49
2019-01-23T04:41:11.011Z,-1.44
2019-01-23T04:42:10.998Z,-1.49
2019-01-23T04:43:10.990Z,-1.51
2019-01-23T04:44:11.187Z,-1.55
2019-01-23T04:45:10.980Z,-1.55
2019-01-23T04:46:10.957Z,-1.55
2019-01-23T04:47:10.973Z,-1.57
2019-01-23T04:48:10.955Z,-1.61
2019-01-23T04:49:10.958Z,-1.46
2019-01-23T04:50:10.984Z,-1.54
2019-01-23T04:51:10.928Z,-1.55
2019-01-23T04:52:10.932Z,-1.54
2019-01-23T04:53:10.881Z,-1.58
2019-01-23T04:54:10.916Z,-1.46
2019-01-23T04:55:10.864Z,-1.52
2019-01-23T04:56:10.898Z,-1.51
2019-01-23T04:57:10.861Z,-1.54
2019-01-23T04:58:10.828Z,-1.57
2019-01-23T04:59:10.823Z,-1.51
2019-01-23T05:00:10.848Z,-1.65
2019-01-23T05:01:10.846Z,-1.67
2019-01-23T05:02:10.868Z,-1.65
2019-01-23T05:03:10.790Z,-1.62
2019-01-23T05:04:10.761Z,-1.62
2019-01-23T05:05:10.802Z,-1.65
2019-01-23T05:06:10.737Z,-1.67
2019-01-23T05:07:10.742Z,-1.69
2019-01-23T05:08:10.777Z,-1.72
2019-01-23T05:09:10.716Z,-1.80
2019-01-23T05:10:10.700Z,-1.82
2019-01-23T05:11:10.697Z,-1.67
2019-01-23T05:12:10.678Z,-1.72
2019-01-23T05:13:10.678Z,-1.72
2019-01-23T05:14:10.753Z,-1.79
2019-01-23T05:15:10.677Z,-1.80
2019-01-23T05:16:10.639Z,-1.83
2019-01-23T05:17:10.688Z,-1.83
2019-01-23T05:18:10.667Z,-1.80
2019-01-23T05:19:10.616Z,-1.78
2019-01-23T05:20:10.649Z,-1.82
2019-01-23T05:21:10.594Z,-1.90
2019-01-23T05:22:10.570Z,-1.82
2019-01-23T05:23:10.568Z,-1.86
2019-01-23T05:24:10.551Z,-1.80
2019-01-23T05:25:10.545Z,-1.80
2019-01-23T05:26:10.660Z,-1.85
2019-01-23T05:27:10.525Z,-1.86
2019-01-23T05:28:10.512Z,-1.86
2019-01-23T05:29:10.516Z,-1.83
2019-01-23T05:30:10.485Z,-1.80
2019-01-23T05:31:10.501Z,-1.91
2019-01-23T05:32:10.500Z,-1.80
2019-01-23T05:33:10.456Z,-1.91
2019-01-23T05:34:10.472Z,-1.97
2019-01-23T05:35:10.434Z,-1.91
2019-01-23T05:36:10.422Z,-1.91
2019-01-23T05:37:10.410Z,-1.96
2019-01-23T05:38:10.454Z,-1.94
2019-01-23T05:39:10.409Z,-1.98
2019-01-23T05:40:10.382Z,-1.94
2019-01-23T05:41:10.368Z,-1.93
2019-01-23T05:42:10.380Z,-1.93
2019-01-23T05:43:10.350Z,-2.03
2019-01-23T05:44:10.385Z,-1.90
2019-01-23T05:45:10.664Z,-1.93
2019-01-23T05:46:10.315Z,-2.03
2019-01-23T05:47:10.305Z,-2.03
2019-01-23T05:48:10.295Z,-2.01
2019-01-23T05:49:10.284Z,-1.98
2019-01-23T05:50:10.326Z,-1.91
2019-01-23T05:51:10.284Z,-1.97
2019-01-23T05:52:10.257Z,-2.06
2019-01-23T05:53:10.242Z,-1.94
2019-01-23T05:54:10.231Z,-2.03
2019-01-23T05:55:10.223Z,-1.93
2019-01-23T05:56:10.247Z,-2.04
2019-01-23T05:57:10.212Z,-2.01
2019-01-23T05:58:10.287Z,-2.03
2019-01-23T05:59:10.180Z,-1.98
2019-01-23T06:00:10.171Z,-2.01
2019-01-23T06:01:10.157Z,-1.97
2019-01-23T06:02:10.192Z,-2.09
2019-01-23T06:03:10.146Z,-2.03
2019-01-23T06:04:10.128Z,-2.00
2019-01-23T06:05:10.118Z,-2.06
2019-01-23T06:06:10.104Z,-2.06
2019-01-23T06:07:10.094Z,-2.00
2019-01-23T06:08:10.288Z,-2.01
2019-01-23T06:09:10.098Z,-2.00
2019-01-23T06:10:10.064Z,-2.04
2019-01-23T06:11:10.055Z,-2.04
2019-01-23T06:12:10.042Z,-1.97
2019-01-23T06:13:10.032Z,-2.06
2019-01-23T06:14:10.069Z,-2.04
2019-01-23T06:15:10.028Z,-2.01
2019-01-23T06:16:09.997Z,-2.08
2019-01-23T06:17:09.987Z,-2.00
2019-01-23T06:18:09.980Z,-2.08
2019-01-23T06:19:09.968Z,-2.04
2019-01-23T06:20:09.999Z,-2.06
2019-01-23T06:21:09.965Z,-2.04
2019-01-23T06:22:09.942Z,-1.96
2019-01-23T06:23:09.931Z,-2.09
2019-01-23T06:24:09.918Z,-2.12
2019-01-23T06:25:09.908Z,-2.09
2019-01-23T06:26:09.948Z,-2.15
2019-01-23T06:27:09.900Z,-2.12
2019-01-23T06:28:09.874Z,-2.08
2019-01-23T06:29:09.862Z,-2.16
2019-01-23T06:30:10.337Z,-2.08
2019-01-23T06:31:09.842Z,-2.15
2019-01-23T06:32:09.866Z,-2.11
2019-01-23T06:33:09.838Z,-2.16
2019-01-23T06:34:09.812Z,-2.08
2019-01-23T06:35:09.798Z,-2.12
2019-01-23T06:36:09.787Z,-2.15
2019-01-23T06:37:09.776Z,-2.15
2019-01-23T06:38:09.834Z,-2.12
2019-01-23T06:39:09.770Z,-2.12
2019-01-23T06:40:09.752Z,-2.19
2019-01-23T06:41:09.734Z,-2.11
2019-01-23T06:42:09.726Z,-2.18
2019-01-23T06:43:09.713Z,-2.22
2019-01-23T06:44:09.908Z,-2.15
2019-01-23T06:45:09.784Z,-2.18
2019-01-23T06:46:09.684Z,-2.19
2019-01-23T06:47:09.670Z,-2.16
2019-01-23T06:48:09.662Z,-2.16
2019-01-23T06:49:09.656Z,-2.21
2019-01-23T06:50:09.667Z,-2.15
2019-01-23T06:51:09.643Z,-2.22
2019-01-23T06:52:09.638Z,-2.18
2019-01-23T06:53:13.964Z,-2.18
2019-01-23T06:54:09.596Z,-2.14
2019-01-23T06:55:09.593Z,-2.19
2019-01-23T06:56:09.629Z,-2.14
2019-01-23T06:57:09.566Z,-2.18
2019-01-23T06:58:09.574Z,-2.21
2019-01-23T06:59:09.549Z,-2.19
2019-01-23T07:00:09.534Z,-2.18
2019-01-23T07:01:09.526Z,-2.18
2019-01-23T07:02:09.574Z,-2.18
2019-01-23T07:03:09.557Z,-2.18
2019-01-23T07:04:09.496Z,-2.18
2019-01-23T07:05:09.502Z,-2.19
2019-01-23T07:06:09.477Z,-2.18
2019-01-23T07:07:09.467Z,-2.21
2019-01-23T07:08:09.477Z,-2.18
2019-01-23T07:09:09.441Z,-2.22
2019-01-23T07:10:09.428Z,-2.16
2019-01-23T07:11:09.433Z,-2.15
2019-01-23T07:12:09.407Z,-2.19
2019-01-23T07:13:09.397Z,-2.14
2019-01-23T07:14:09.435Z,-2.21
2019-01-23T07:15:09.378Z,-2.15
2019-01-23T07:16:09.363Z,-2.15
2019-01-23T07:17:09.364Z,-2.09
2019-01-23T07:18:09.353Z,-2.16
2019-01-23T07:19:09.333Z,-2.15
2019-01-23T07:20:09.352Z,-2.19
2019-01-23T07:21:09.312Z,-2.18
2019-01-23T07:22:09.299Z,-2.04
2019-01-23T07:23:09.290Z,-2.15
2019-01-23T07:24:09.323Z,-2.12
2019-01-23T07:25:09.273Z,-2.15
2019-01-23T07:26:09.321Z,-2.04
2019-01-23T07:27:09.250Z,-2.12
2019-01-23T07:28:09.236Z,-2.12
2019-01-23T07:29:09.226Z,-2.12
2019-01-23T07:30:09.221Z,-2.08
2019-01-23T07:31:09.215Z,-2.14
2019-01-23T07:32:09.309Z,-2.15
2019-01-23T07:33:09.192Z,-2.15
2019-01-23T07:34:09.180Z,-2.14
2019-01-23T07:35:09.174Z,-2.16
2019-01-23T07:36:09.156Z,-2.06
2019-01-23T07:37:09.142Z,-2.11
2019-01-23T07:38:09.161Z,-2.04
2019-01-23T07:39:09.125Z,-1.98
2019-01-23T07:40:09.119Z,-2.14
2019-01-23T07:41:09.101Z,-2.04
2019-01-23T07:42:09.090Z,-2.04
2019-01-23T07:43:09.129Z,-1.97
2019-01-23T07:44:09.144Z,-2.06
2019-01-23T07:45:09.076Z,-2.11
2019-01-23T07:46:09.080Z,-1.98
2019-01-23T07:47:09.047Z,-2.11
2019-01-23T07:48:09.036Z,-1.98
2019-01-23T07:49:09.020Z,-1.96
2019-01-23T07:50:09.066Z,-1.91
2019-01-23T07:51:09.006Z,-1.94
2019-01-23T07:52:08.984Z,-1.93
2019-01-23T07:53:08.992Z,-1.97
2019-01-23T07:54:08.963Z,-1.98
2019-01-23T07:55:09.079Z,-1.93
2019-01-23T07:56:08.980Z,-1.96
2019-01-23T07:57:08.931Z,-1.96
2019-01-23T07:58:08.924Z,-1.82
2019-01-23T07:59:09.950Z,-1.82
2019-01-23T08:00:08.930Z,-1.82
2019-01-23T08:01:08.919Z,-1.79
2019-01-23T08:02:08.976Z,-1.83
2019-01-23T08:03:08.873Z,-1.88
2019-01-23T08:04:08.857Z,-1.85
2019-01-23T08:05:09.015Z,-1.85
2019-01-23T08:06:08.858Z,-1.88
2019-01-23T08:07:08.828Z,-1.82
2019-01-23T08:08:08.878Z,-1.83
2019-01-23T08:09:08.826Z,-1.82
2019-01-23T08:10:08.798Z,-1.79
2019-01-23T08:11:08.810Z,-1.82
2019-01-23T08:12:10.861Z,-1.83
2019-01-23T08:13:08.790Z,-1.72
2019-01-23T08:14:08.826Z,-1.78
2019-01-23T08:15:08.746Z,-1.83
2019-01-23T08:16:08.751Z,-1.83
2019-01-23T08:17:08.716Z,-1.83
2019-01-23T08:18:08.716Z,-1.69
2019-01-23T08:19:08.703Z,-1.70
2019-01-23T08:20:08.914Z,-1.67
2019-01-23T08:21:08.674Z,-1.70
2019-01-23T08:22:08.673Z,-1.72
2019-01-23T08:23:08.660Z,-1.75
2019-01-23T08:24:08.688Z,-1.70
2019-01-23T08:25:08.640Z,-1.67
2019-01-23T08:26:08.667Z,-1.64
2019-01-23T08:27:08.614Z,-1.65
2019-01-23T08:28:08.606Z,-1.62
2019-01-23T08:29:08.589Z,-1.58
2019-01-23T08:30:08.593Z,-1.54
2019-01-23T08:31:08.586Z,-1.55
2019-01-23T08:32:08.634Z,-1.57
2019-01-23T08:33:08.551Z,-1.44
2019-01-23T08:34:08.546Z,-1.47
2019-01-23T08:35:08.596Z,-1.54
2019-01-23T08:36:08.564Z,-1.58
2019-01-23T08:37:08.513Z,-1.49
2019-01-23T08:38:08.536Z,-1.43
2019-01-23T08:39:08.497Z,-1.46
2019-01-23T08:40:08.485Z,-1.43
2019-01-23T08:41:08.508Z,-1.47
2019-01-23T08:42:08.467Z,-1.46
2019-01-23T08:43:08.460Z,-1.51
2019-01-23T08:44:08.504Z,-1.51
2019-01-23T08:45:08.433Z,-1.51
2019-01-23T08:46:08.431Z,-1.57
2019-01-23T08:47:08.456Z,-1.51
2019-01-23T08:48:08.408Z,-1.39
2019-01-23T08:49:08.407Z,-1.41
2019-01-23T08:50:08.417Z,-1.46
2019-01-23T08:51:08.367Z,-1.40
2019-01-23T08:52:08.345Z,-1.34
2019-01-23T08:53:08.334Z,-1.40
2019-01-23T08:54:08.345Z,-1.37
2019-01-23T08:55:08.313Z,-1.29
2019-01-23T08:56:08.350Z,-1.29
2019-01-23T08:57:08.295Z,-1.36
2019-01-23T08:58:08.279Z,-1.22
2019-01-23T08:59:08.280Z,-1.26
2019-01-23T09:00:08.267Z,-1.23
2019-01-23T09:01:08.255Z,-1.21
2019-01-23T09:02:08.362Z,-1.13
2019-01-23T09:03:08.247Z,-1.10
2019-01-23T09:04:08.223Z,-1.13
2019-01-23T09:05:08.232Z,-1.07
2019-01-23T09:06:08.290Z,-1.11
2019-01-23T09:07:08.208Z,-1.01
2019-01-23T09:08:08.272Z,-0.98
2019-01-23T09:09:08.171Z,-1.00
2019-01-23T09:10:08.159Z,-1.01
2019-01-23T09:11:08.158Z,-1.04
2019-01-23T09:12:08.682Z,-1.00
2019-01-23T09:13:08.136Z,-1.01
2019-01-23T09:14:08.173Z,-1.00
2019-01-23T09:15:08.111Z,-1.01
2019-01-23T09:16:08.095Z,-1.01
2019-01-23T09:17:08.087Z,-0.98
2019-01-23T09:18:08.099Z,-1.03
2019-01-23T09:19:08.108Z,-1.00
2019-01-23T09:20:08.106Z,-1.13
2019-01-23T09:21:08.054Z,-0.97
2019-01-23T09:22:08.062Z,-0.98
2019-01-23T09:23:08.060Z,-1.03
2019-01-23T09:24:08.012Z,-0.97
2019-01-23T09:25:08.018Z,-1.00
2019-01-23T09:26:08.083Z,-0.85
2019-01-23T09:27:07.999Z,-0.82
2019-01-23T09:28:07.979Z,-0.81
2019-01-23T09:29:07.963Z,-0.82
2019-01-23T09:30:07.956Z,-0.79
2019-01-23T09:31:07.939Z,-0.76
2019-01-23T09:32:07.966Z,-0.76
2019-01-23T09:33:07.953Z,-0.70
2019-01-23T09:34:07.908Z,-0.63
2019-01-23T09:35:07.969Z,-0.58
2019-01-23T09:36:07.890Z,-0.63
2019-01-23T09:37:07.914Z,-0.57
2019-01-23T09:38:07.904Z,-0.64
2019-01-23T09:39:07.868Z,-0.61
2019-01-23T09:40:07.836Z,-0.64
2019-01-23T09:41:07.825Z,-0.71
2019-01-23T09:42:07.823Z,-0.66
2019-01-23T09:43:07.802Z,-0.64
2019-01-23T09:44:07.839Z,-0.71
2019-01-23T09:45:07.795Z,-0.66
2019-01-23T09:46:07.783Z,-0.70
2019-01-23T09:47:07.768Z,-0.84
2019-01-23T09:48:07.760Z,-0.82
2019-01-23T09:49:07.739Z,-0.81
2019-01-23T09:50:07.764Z,-0.82
2019-01-23T09:51:07.720Z,-0.70
2019-01-23T09:52:07.706Z,-0.73
2019-01-23T09:53:07.703Z,-0.70
2019-01-23T09:54:07.694Z,-0.79
2019-01-23T09:55:07.682Z,-0.63
2019-01-23T09:56:07.711Z,-0.71
2019-01-23T09:57:07.653Z,-0.63
2019-01-23T09:58:07.640Z,-0.68
2019-01-23T09:59:08.944Z,-0.68
2019-01-23T10:00:07.620Z,-0.70
2019-01-23T10:01:07.620Z,-0.70
2019-01-23T10:02:07.633Z,-0.60
2019-01-23T10:03:07.590Z,-0.61
2019-01-23T10:04:07.601Z,-0.50
2019-01-23T10:05:07.598Z,-0.52
2019-01-23T10:06:07.573Z,-0.52
2019-01-23T10:07:07.556Z,-0.49
2019-01-23T10:08:07.574Z,-0.61
2019-01-23T10:09:07.541Z,-0.61
2019-01-23T10:10:07.529Z,-0.64
2019-01-23T10:11:07.503Z,-0.66
2019-01-23T10:12:07.492Z,-0.57
2019-01-23T10:13:07.489Z,-0.63
2019-01-23T10:14:07.521Z,-0.58
2019-01-23T10:15:07.480Z,-0.47
2019-01-23T10:16:07.455Z,-0.57
2019-01-23T10:17:07.443Z,-0.46
2019-01-23T10:18:07.428Z,-0.49
2019-01-23T10:19:07.417Z,-0.45
2019-01-23T10:20:07.453Z,-0.46
2019-01-23T10:21:07.396Z,-0.52
2019-01-23T10:22:07.386Z,-0.49
2019-01-23T10:23:07.374Z,-0.47
2019-01-23T10:24:07.363Z,-0.43
2019-01-23T10:25:07.353Z,-0.43
2019-01-23T10:26:07.402Z,-0.43
2019-01-23T10:27:07.344Z,-0.45
2019-01-23T10:28:07.353Z,-0.39
2019-01-23T10:29:07.342Z,-0.31
2019-01-23T10:30:07.299Z,-0.39
2019-01-23T10:31:07.297Z,-0.35
2019-01-23T10:32:07.324Z,-0.39
2019-01-23T10:33:07.280Z,-0.43
2019-01-23T10:34:07.260Z,-0.34
2019-01-23T10:35:07.241Z,-0.43
2019-01-23T10:36:07.226Z,-0.39
2019-01-23T10:37:07.214Z,-0.43
2019-01-23T10:38:07.240Z,-0.45
2019-01-23T10:39:07.214Z,-0.25
2019-01-23T10:40:07.191Z,-0.28
2019-01-23T10:41:07.171Z,-0.10
2019-01-23T10:42:07.160Z,-0.06
2019-01-23T10:43:07.153Z,-0.07
2019-01-23T10:44:07.192Z,0.07
2019-01-23T10:45:07.133Z,0.05
2019-01-23T10:46:07.130Z,0.00
2019-01-23T10:47:07.118Z,-0.01
2019-01-23T10:48:07.104Z,-0.01
2019-01-23T10:49:07.089Z,-0.07
2019-01-23T10:50:07.119Z,-0.06
2019-01-23T10:51:07.071Z,-0.13
2019-01-23T10:52:07.069Z,-0.03
2019-01-23T10:53:07.047Z,-0.11
2019-01-23T10:54:07.040Z,-0.03
2019-01-23T10:55:07.032Z,-0.01
2019-01-23T10:56:07.054Z,0.08
2019-01-23T10:57:07.020Z,0.09
2019-01-23T10:58:07.022Z,0.08
2019-01-23T10:59:07.003Z,0.08
2019-01-23T11:00:06.968Z,0.02
2019-01-23T11:01:13.232Z,-0.03
2019-01-23T11:02:07.990Z,0.02
2019-01-23T11:03:10.145Z,0.00
2019-01-23T11:04:06.924Z,-0.14
2019-01-23T11:05:06.915Z,-0.09
2019-01-23T11:06:06.906Z,-0.10
2019-01-23T11:07:06.907Z,-0.09
2019-01-23T11:08:06.964Z,-0.13
2019-01-23T11:09:06.882Z,-0.10
2019-01-23T11:10:06.869Z,-0.11
2019-01-23T11:11:06.858Z,-0.09
2019-01-23T11:12:06.856Z,-0.17
2019-01-23T11:13:06.829Z,-0.14
2019-01-23T11:14:06.845Z,-0.11
2019-01-23T11:15:06.816Z,0.00
2019-01-23T11:16:06.800Z,0.07
2019-01-23T11:17:06.788Z,0.05
2019-01-23T11:18:06.791Z,0.00
2019-01-23T11:19:06.764Z,0.04
2019-01-23T11:20:06.785Z,0.04
2019-01-23T11:21:06.742Z,-0.01
2019-01-23T11:22:06.778Z,-0.04
2019-01-23T11:23:06.759Z,0.00
2019-01-23T11:24:06.708Z,-0.03
2019-01-23T11:25:06.714Z,0.08
2019-01-23T11:26:06.717Z,0.07
2019-01-23T11:27:06.716Z,0.05
2019-01-23T11:28:06.666Z,0.09
2019-01-23T11:29:06.655Z,0.18
2019-01-23T11:30:06.638Z,0.11
2019-01-23T11:31:06.635Z,0.12
2019-01-23T11:32:06.669Z,-0.01
2019-01-23T11:33:06.608Z,0.02
2019-01-23T11:34:06.611Z,0.07
2019-01-23T11:35:06.607Z,0.02
2019-01-23T11:36:06.588Z,0.05
2019-01-23T11:37:06.571Z,-0.01
2019-01-23T11:38:06.590Z,0.04
2019-01-23T11:39:06.575Z,-0.01
2019-01-23T11:40:06.535Z,-0.07
2019-01-23T11:41:06.525Z,0.02
2019-01-23T11:42:06.517Z,0.00
2019-01-23T11:43:06.511Z,0.02
2019-01-23T11:44:06.546Z,0.00
2019-01-23T11:45:06.483Z,0.05
2019-01-23T11:46:06.475Z,0.12
2019-01-23T11:47:06.471Z,0.12
2019-01-23T11:48:06.457Z,0.17
2019-01-23T11:49:06.440Z,0.22
2019-01-23T11:50:06.451Z,0.22
2019-01-23T11:51:06.408Z,0.14
2019-01-23T11:52:06.406Z,0.12
2019-01-23T11:53:06.423Z,0.04
2019-01-23T11:54:06.379Z,0.04
2019-01-23T11:55:06.366Z,0.07
2019-01-23T11:56:06.393Z,0.09
2019-01-23T11:57:06.344Z,0.20
2019-01-23T11:58:06.335Z,0.22
2019-01-23T11:59:06.338Z,0.26
2019-01-23T12:00:06.319Z,0.23
2019-01-23T12:01:06.311Z,0.25
2019-01-23T12:02:06.440Z,0.35
2019-01-23T12:03:06.279Z,0.35
2019-01-23T12:04:06.290Z,0.45
2019-01-23T12:05:06.256Z,0.41
2019-01-23T12:06:06.252Z,0.36
2019-01-23T12:07:06.243Z,0.33
2019-01-23T12:08:06.277Z,0.44
2019-01-23T12:09:06.307Z,0.43
2019-01-23T12:10:06.206Z,0.56
2019-01-23T12:11:06.224Z,0.60
2019-01-23T12:12:06.181Z,0.62
2019-01-23T12:13:06.171Z,0.55
2019-01-23T12:14:06.206Z,0.48
2019-01-23T12:15:06.160Z,0.41
2019-01-23T12:16:06.138Z,0.43
2019-01-23T12:17:06.125Z,0.45
2019-01-23T12:18:06.129Z,0.53
2019-01-23T12:19:06.117Z,0.50
2019-01-23T12:20:06.179Z,0.45
2019-01-23T12:21:06.085Z,0.60
2019-01-23T12:22:06.092Z,0.60
2019-01-23T12:23:06.062Z,0.72
2019-01-23T12:24:06.064Z,0.67
2019-01-23T12:25:06.065Z,0.66
2019-01-23T12:26:06.055Z,0.55
2019-01-23T12:27:06.024Z,0.45
2019-01-23T12:28:06.006Z,0.50
2019-01-23T12:29:06.007Z,0.47
2019-01-23T12:30:05.993Z,0.51
2019-01-23T12:31:05.977Z,0.55
2019-01-23T12:32:06.015Z,0.40
2019-01-23T12:33:05.955Z,0.53
2019-01-23T12:34:05.939Z,0.40
2019-01-23T12:35:05.931Z,0.35
2019-01-23T12:36:05.923Z,0.35
2019-01-23T12:37:05.933Z,0.26
2019-01-23T12:38:05.977Z,0.22
2019-01-23T12:39:05.907Z,0.26
2019-01-23T12:40:05.877Z,0.33
2019-01-23T12:41:05.881Z,0.30
2019-01-23T12:42:05.858Z,0.32
2019-01-23T12:43:05.847Z,0.23
2019-01-23T12:44:05.923Z,0.27
2019-01-23T12:45:05.822Z,0.29
2019-01-23T12:46:05.817Z,0.35
2019-01-23T12:47:05.797Z,0.43
2019-01-23T12:48:05.793Z,0.41
2019-01-23T12:49:05.813Z,0.51
2019-01-23T12:50:05.834Z,0.43
2019-01-23T12:51:05.767Z,0.43
2019-01-23T12:52:05.762Z,0.32
2019-01-23T12:53:05.734Z,0.35
2019-01-23T12:54:05.722Z,0.35
2019-01-23T12:55:05.717Z,0.23
2019-01-23T12:56:06.160Z,0.18